Bon Wier, Texas
Current Conditions -  °F | °C
As of 4:15 PM on Thursday 23 Oct 2014 (Local Time) from KDRI Reporting Station
Clear Clear  
Wind Chill: 73°   Ceiling: Unl
Heat Index: 73°   Visibility: 10mi
Dew Point: 50°   Wind: 8mph
Humidity: 45%   Direction: 340°NNW
Pressure: 30.09"   Gusts: NA
Location:  30.74°N, 93.64°W
Report Text: KDRI 232115Z AUTO 34007KT 10SM CLR 23/10 A3009 RMK AO2 T02250101
Loading
Personal Weather Stations






























Interactive Weather Map
Tropical Storm Tracking
New forecast layout! Learn more

10-Day Weather Forecast

Advertisements
Track Severe Weather on mobile